Main page
METAR-TAF:

METAR-TAF

Airports :

Glasgow, Scotland

Glasgow Airport

latitude: 55-52N, longitude: 004-26W, elevation: 8 m

Current weather observation

The report was made 24 minutes ago, at 02:20 UTC
Wind 5 kt from the Southwest
Temperature 12°C
Humidity 94%
Pressure 1016 hPa
Visibility 10 km or more

METAR: EGPF 240220Z AUTO 23005KT 9999 NCD 12/11 Q1016

Time: 03:44 (02:44 UTC)

Forecast

The report was made 3 hours and 47 minutes ago, at 22:57 UTC
Forecast valid from 24 at 00 UTC to 24 at 24 UTC
Wind 5 kt from the Northwest
Visibility 10 km or more
Scattered clouds at a height of 3500 ft
Probability 30%
from 24 at 00 UTC to 24 at 06 UTC
Visibility: 8000 m
Probability 30% :
Temporary
from 24 at 12 UTC to 24 at 19 UTC
Visibility: 6000 m
rain showers

TAF: EGPF 232257Z 2400/2424 31005KT 9999 SCT035 PROB30 2400/2406 8000 PROB30 TEMPO 2412/2419 6000 SHRA

Weather observations and forecasts of more than 4000 airports (METAR and TAF reports).

The available stations are represented by yellow and red dots on the map.

Hover mouse over dot to see the name of the station.

Then click to see weather observations and forecasts.

To change the map : click on the green buttons with a black cross to zoom in, on the green button with a dash to zoom out, or on the green arrows for adjacent maps.


METAR-TAF: